Nyk Constellation — V7NP4 — position and weather

sailwx.info

Track history (hours):
 
Tides and Currents Weather Stations Pressure Air Temp Water Temp Dewpoint Dewpoint Depression Visibility Wind Speed Wind Dir Waves Ship Positions

Nyk Constellation

Last reported at 2014-Sep-22 01:19 UTC. Time now 2014-Oct-01 06:05 UTC.
Position N 32°02' W 080°51'.
Warning: this ship's position is 9 days out of date.

Length 294 m; draft 11.3 m.

Type: Cargo ship. MMSI: 538002992.

Date/timePositionNaut miles runAvg speedWind from/ knotsBaromVisibWave heightAir tempDewpointWater temp
2014-Sep-22 01:19N 32°02' W 080°51'911.5
2014-Sep-22 00:33N 32°06' W 081°00'6 6.2
2014-Sep-21 23:33N 32°07' W 081°07'1 0.9
2014-Sep-21 22:33N 32°07' W 081°08'0 0.0
2014-Sep-21 21:32N 32°07' W 081°08'0 0.0
2014-Sep-21 20:33N 32°07' W 081°08'0 0.0
2014-Sep-21 19:33N 32°07' W 081°08'0 0.0
2014-Sep-21 18:33N 32°07' W 081°08'0 0.0
2014-Sep-21 17:32N 32°07' W 081°08'0 0.0
2014-Sep-21 16:23N 32°07' W 081°08'0 0.0
2014-Sep-21 15:33N 32°07' W 081°08'0 0.0
2014-Sep-21 14:32N 32°07' W 081°08'0 0.0
2014-Sep-21 13:26N 32°07' W 081°08'0 0.0
2014-Sep-21 12:32N 32°07' W 081°08'0 0.0
2014-Sep-21 11:14N 32°07' W 081°08'0 0.0
2014-Sep-21 07:26N 32°07' W 081°08'0 0.1
2014-Sep-21 05:33N 32°07' W 081°08'5 5.2
2014-Sep-21 04:33N 32°05' W 081°03'8 8.2
2014-Sep-21 03:31N 32°02' W 080°53'38310.0
2014-Sep-19 13:10N 36°46' W 075°41'1117.6
2014-Sep-19 12:32N 36°52' W 075°52'1513.0
2014-Sep-19 11:22N 36°59' W 076°09'910.6
2014-Sep-19 10:31N 36°57' W 076°20'2 1.6
2014-Sep-19 09:31N 36°55' W 076°20'0 0.0
2014-Sep-19 07:31N 36°55' W 076°20'0 0.0
2014-Sep-19 00:32N 36°55' W 076°20'1 0.9
2014-Sep-18 23:32N 36°56' W 076°20'3 2.7
2014-Sep-18 22:32N 36°59' W 076°20'9 6.5
2014-Sep-18 21:13N 36°59' W 076°09'1111.6
2014-Sep-18 20:18N 36°56' W 075°57'11316.2
2014-Sep-18 13:19N 38°14' W 074°12'1519.6
2014-Sep-18 12:33N 38°27' W 074°05'2020.3
2014-Sep-18 11:33N 38°47' W 073°58'2020.6
2014-Sep-18 10:33N 39°07' W 073°52'2120.9
2014-Sep-18 09:32N 39°28' W 073°49'2020.8
2014-Sep-18 08:34N 39°49' W 073°49'2120.9
2014-Sep-18 07:34N 40°09' W 073°49'1716.9
2014-Sep-18 06:33N 40°26' W 073°50'1312.1
2014-Sep-18 05:31N 40°35' W 074°02'6 6.3
2014-Sep-18 04:29N 40°39' W 074°09'2 1.6
2014-Sep-18 03:23N 40°39' W 074°11'0 0.0
2014-Sep-18 02:32N 40°39' W 074°11'0 0.0
2014-Sep-18 01:32N 40°39' W 074°11'0 0.0
2014-Sep-18 00:34N 40°39' W 074°11'0 0.0
2014-Sep-17 23:31N 40°39' W 074°11'0 0.0
2014-Sep-17 22:31N 40°39' W 074°11'0 0.0
2014-Sep-17 21:32N 40°39' W 074°11'0 0.0
2014-Sep-17 20:33N 40°39' W 074°11'0 0.0
2014-Sep-17 19:23N 40°39' W 074°11'0 0.0
2014-Sep-17 18:30N 40°39' W 074°11'0 0.0
2014-Sep-17 17:33N 40°39' W 074°11'0 0.0
2014-Sep-17 16:34N 40°39' W 074°11'0 0.0
2014-Sep-17 15:33N 40°39' W 074°11'0 0.0
2014-Sep-17 14:33N 40°39' W 074°11'0 0.2
2014-Sep-17 13:34N 40°39' W 074°11'8 5.8
2014-Sep-17 12:12N 40°35' W 074°02'1710.4
2014-Sep-17 10:34N 40°28' W 073°42'3 2.6
2014-Sep-17 09:27N 40°30' W 073°39'0 0.0
2014-Sep-17 08:33N 40°30' W 073°39'0 0.0
2014-Sep-17 07:33N 40°30' W 073°39'0 0.0
2014-Sep-17 06:33N 40°30' W 073°39'0 0.0
2014-Sep-17 05:06N 40°30' W 073°39'0 0.0
2014-Sep-17 04:27N 40°30' W 073°39'43 4.8
2014-Sep-16 19:26N 40°30' W 072°42'1111.2
2014-Sep-16 18:28N 40°30' W 072°28'1011.3
2014-Sep-16 17:33N 40°31' W 072°14'1211.5
2014-Sep-16 16:33N 40°31' W 071°59'1010.0
2014-Sep-16 15:33N 40°33' W 071°46'0 0.2
2014-Sep-16 14:33N 40°33' W 071°46'0 0.4
2014-Sep-16 13:33N 40°32' W 071°46'1 1.4
2014-Sep-16 12:33N 40°31' W 071°45'1111.0
2014-Sep-16 11:33N 40°32' W 071°30'1211.6
2014-Sep-16 10:33N 40°32' W 071°15'1211.5
2014-Sep-16 09:33N 40°32' W 071°00'1211.6
2014-Sep-16 08:33N 40°33' W 070°45'1211.6
2014-Sep-16 07:32N 40°33' W 070°29'1111.2
2014-Sep-16 06:33N 40°34' W 070°15'1211.6
2014-Sep-16 05:33N 40°34' W 069°60'1212.2
2014-Sep-16 04:33N 40°34' W 069°44'1212.3
2014-Sep-16 03:33N 40°35' W 069°27'1212.3
2014-Sep-16 02:33N 40°35' W 069°11'1211.2
2014-Sep-16 01:30N 40°36' W 068°56'1211.6
2014-Sep-16 00:27N 40°40' W 068°41'1111.8
2014-Sep-15 23:33N 40°44' W 068°27'31414.9
2014-Sep-15 02:33N 44°28' W 063°30'1010.2
2014-Sep-15 01:33N 44°38' W 063°33'4 3.6
2014-Sep-15 00:33N 44°40' W 063°38'0 0.0
2014-Sep-14 23:33N 44°40' W 063°38'0 0.0
2014-Sep-14 22:33N 44°40' W 063°38'0 0.0
2014-Sep-14 21:33N 44°40' W 063°38'0 0.0
2014-Sep-14 20:32N 44°40' W 063°38'0 0.0
2014-Sep-14 19:33N 44°40' W 063°38'0 0.0
2014-Sep-14 18:33N 44°40' W 063°38'0 0.0
2014-Sep-14 17:33N 44°40' W 063°38'0 0.0
2014-Sep-14 16:34N 44°40' W 063°38'0 0.0
2014-Sep-14 15:34N 44°40' W 063°38'1 1.2
2014-Sep-14 14:34N 44°41' W 063°36'9 8.7
2014-Sep-14 13:33N 44°32' W 063°31'8 8.2
2014-Sep-14 12:33N 44°27' W 063°22'  
Track history (hours):
 
Tides and Currents Weather Stations Pressure Air Temp Water Temp Dewpoint Dewpoint Depression Visibility Wind Speed Wind Dir Waves Ship Positions

Nyk Constellation

Last reported at 2014-Sep-22 01:19 UTC. Time now 2014-Oct-01 06:05 UTC.
Position N 32°02' W 080°51'.
Warning: this ship's position is 9 days out of date.

Length 294 m; draft 11.3 m.

Type: Cargo ship. MMSI: 538002992.

Date/timePositionNaut miles runAvg speedWind from/ knotsBaromVisibWave heightAir tempDewpointWater temp
2014-Sep-22 01:19N 32°02' W 080°51'911.5
2014-Sep-22 00:33N 32°06' W 081°00'6 6.2
2014-Sep-21 23:33N 32°07' W 081°07'1 0.9
2014-Sep-21 22:33N 32°07' W 081°08'0 0.0
2014-Sep-21 21:32N 32°07' W 081°08'0 0.0
2014-Sep-21 20:33N 32°07' W 081°08'0 0.0
2014-Sep-21 19:33N 32°07' W 081°08'0 0.0
2014-Sep-21 18:33N 32°07' W 081°08'0 0.0
2014-Sep-21 17:32N 32°07' W 081°08'0 0.0
2014-Sep-21 16:23N 32°07' W 081°08'0 0.0
2014-Sep-21 15:33N 32°07' W 081°08'0 0.0
2014-Sep-21 14:32N 32°07' W 081°08'0 0.0
2014-Sep-21 13:26N 32°07' W 081°08'0 0.0
2014-Sep-21 12:32N 32°07' W 081°08'0 0.0
2014-Sep-21 11:14N 32°07' W 081°08'0 0.0
2014-Sep-21 07:26N 32°07' W 081°08'0 0.1
2014-Sep-21 05:33N 32°07' W 081°08'5 5.2
2014-Sep-21 04:33N 32°05' W 081°03'8 8.2
2014-Sep-21 03:31N 32°02' W 080°53'38310.0
2014-Sep-19 13:10N 36°46' W 075°41'1117.6
2014-Sep-19 12:32N 36°52' W 075°52'1513.0
2014-Sep-19 11:22N 36°59' W 076°09'910.6
2014-Sep-19 10:31N 36°57' W 076°20'2 1.6
2014-Sep-19 09:31N 36°55' W 076°20'0 0.0
2014-Sep-19 07:31N 36°55' W 076°20'0 0.0
2014-Sep-19 00:32N 36°55' W 076°20'1 0.9
2014-Sep-18 23:32N 36°56' W 076°20'3 2.7
2014-Sep-18 22:32N 36°59' W 076°20'9 6.5
2014-Sep-18 21:13N 36°59' W 076°09'1111.6
2014-Sep-18 20:18N 36°56' W 075°57'11316.2
2014-Sep-18 13:19N 38°14' W 074°12'1519.6
2014-Sep-18 12:33N 38°27' W 074°05'2020.3
2014-Sep-18 11:33N 38°47' W 073°58'2020.6
2014-Sep-18 10:33N 39°07' W 073°52'2120.9
2014-Sep-18 09:32N 39°28' W 073°49'2020.8
2014-Sep-18 08:34N 39°49' W 073°49'2120.9
2014-Sep-18 07:34N 40°09' W 073°49'1716.9
2014-Sep-18 06:33N 40°26' W 073°50'1312.1
2014-Sep-18 05:31N 40°35' W 074°02'6 6.3
2014-Sep-18 04:29N 40°39' W 074°09'2 1.6
2014-Sep-18 03:23N 40°39' W 074°11'0 0.0
2014-Sep-18 02:32N 40°39' W 074°11'0 0.0
2014-Sep-18 01:32N 40°39' W 074°11'0 0.0
2014-Sep-18 00:34N 40°39' W 074°11'0 0.0
2014-Sep-17 23:31N 40°39' W 074°11'0 0.0
2014-Sep-17 22:31N 40°39' W 074°11'0 0.0
2014-Sep-17 21:32N 40°39' W 074°11'0 0.0
2014-Sep-17 20:33N 40°39' W 074°11'0 0.0
2014-Sep-17 19:23N 40°39' W 074°11'0 0.0
2014-Sep-17 18:30N 40°39' W 074°11'0 0.0
2014-Sep-17 17:33N 40°39' W 074°11'0 0.0
2014-Sep-17 16:34N 40°39' W 074°11'0 0.0
2014-Sep-17 15:33N 40°39' W 074°11'0 0.0
2014-Sep-17 14:33N 40°39' W 074°11'0 0.2
2014-Sep-17 13:34N 40°39' W 074°11'8 5.8
2014-Sep-17 12:12N 40°35' W 074°02'1710.4
2014-Sep-17 10:34N 40°28' W 073°42'3 2.6
2014-Sep-17 09:27N 40°30' W 073°39'0 0.0
2014-Sep-17 08:33N 40°30' W 073°39'0 0.0
2014-Sep-17 07:33N 40°30' W 073°39'0 0.0
2014-Sep-17 06:33N 40°30' W 073°39'0 0.0
2014-Sep-17 05:06N 40°30' W 073°39'0 0.0
2014-Sep-17 04:27N 40°30' W 073°39'43 4.8
2014-Sep-16 19:26N 40°30' W 072°42'1111.2
2014-Sep-16 18:28N 40°30' W 072°28'1011.3
2014-Sep-16 17:33N 40°31' W 072°14'1211.5
2014-Sep-16 16:33N 40°31' W 071°59'1010.0
2014-Sep-16 15:33N 40°33' W 071°46'0 0.2
2014-Sep-16 14:33N 40°33' W 071°46'0 0.4
2014-Sep-16 13:33N 40°32' W 071°46'1 1.4
2014-Sep-16 12:33N 40°31' W 071°45'1111.0
2014-Sep-16 11:33N 40°32' W 071°30'1211.6
2014-Sep-16 10:33N 40°32' W 071°15'1211.5
2014-Sep-16 09:33N 40°32' W 071°00'1211.6
2014-Sep-16 08:33N 40°33' W 070°45'1211.6
2014-Sep-16 07:32N 40°33' W 070°29'1111.2
2014-Sep-16 06:33N 40°34' W 070°15'1211.6
2014-Sep-16 05:33N 40°34' W 069°60'1212.2
2014-Sep-16 04:33N 40°34' W 069°44'1212.3
2014-Sep-16 03:33N 40°35' W 069°27'1212.3
2014-Sep-16 02:33N 40°35' W 069°11'1211.2
2014-Sep-16 01:30N 40°36' W 068°56'1211.6
2014-Sep-16 00:27N 40°40' W 068°41'1111.8
2014-Sep-15 23:33N 40°44' W 068°27'31414.9
2014-Sep-15 02:33N 44°28' W 063°30'1010.2
2014-Sep-15 01:33N 44°38' W 063°33'4 3.6
2014-Sep-15 00:33N 44°40' W 063°38'0 0.0
2014-Sep-14 23:33N 44°40' W 063°38'0 0.0
2014-Sep-14 22:33N 44°40' W 063°38'0 0.0
2014-Sep-14 21:33N 44°40' W 063°38'0 0.0
2014-Sep-14 20:32N 44°40' W 063°38'0 0.0
2014-Sep-14 19:33N 44°40' W 063°38'0 0.0
2014-Sep-14 18:33N 44°40' W 063°38'0 0.0
2014-Sep-14 17:33N 44°40' W 063°38'0 0.0
2014-Sep-14 16:34N 44°40' W 063°38'0 0.0
2014-Sep-14 15:34N 44°40' W 063°38'1 1.2
2014-Sep-14 14:34N 44°41' W 063°36'9 8.7
2014-Sep-14 13:33N 44°32' W 063°31'8 8.2
2014-Sep-14 12:33N 44°27' W 063°22'  

Dump ship's entire track history